createdAt,value
2019-04-14T00:05:08.300Z,30.10
2019-04-14T00:11:08.349Z,28.90
2019-04-14T00:17:08.749Z,32.30
2019-04-14T00:23:08.767Z,31.80
2019-04-14T00:29:08.953Z,33.20
2019-04-14T00:35:08.293Z,38.30
2019-04-14T00:41:09.314Z,40.70
2019-04-14T00:47:09.050Z,39.80
2019-04-14T00:53:08.197Z,40.80
2019-04-14T00:59:09.318Z,41.50
2019-04-14T01:05:08.938Z,39.70
2019-04-14T01:11:09.462Z,42.50
2019-04-14T01:17:09.063Z,40.40
2019-04-14T01:23:08.445Z,41.90
2019-04-14T01:29:08.100Z,41.90
2019-04-14T01:35:08.166Z,40.50
2019-04-14T01:41:08.561Z,40.90
2019-04-14T01:47:08.113Z,41.50
2019-04-14T01:53:08.233Z,40.30
2019-04-14T01:59:08.701Z,37.80
2019-04-14T02:05:08.243Z,35.60
2019-04-14T02:11:09.384Z,38.50
2019-04-14T02:17:09.419Z,36.60
2019-04-14T02:23:08.349Z,31.50
2019-04-14T02:29:09.925Z,29.60
2019-04-14T02:35:40.960Z,30.00
2019-04-14T02:41:35.774Z,29.60
2019-04-14T02:47:53.822Z,29.90
2019-04-14T02:53:44.234Z,29.50
2019-04-14T02:59:38.479Z,30.70
2019-04-14T03:05:34.308Z,29.70
2019-04-14T03:11:33.808Z,30.20
2019-04-14T03:17:39.126Z,31.80
2019-04-14T03:29:29.195Z,31.30
2019-04-14T03:41:31.544Z,32.90
2019-04-14T03:47:31.004Z,32.90
2019-04-14T03:53:32.525Z,35.00
2019-04-14T03:59:08.511Z,34.80
2019-04-14T04:05:08.527Z,35.90
2019-04-14T04:11:08.451Z,35.00
2019-04-14T04:17:08.190Z,35.70
2019-04-14T04:23:09.440Z,34.40
2019-04-14T04:29:09.146Z,35.30
2019-04-14T04:35:08.580Z,36.10
2019-04-14T04:41:08.172Z,35.80
2019-04-14T04:47:08.166Z,37.10
2019-04-14T04:53:09.061Z,36.20
2019-04-14T04:59:08.204Z,38.00
2019-04-14T05:05:08.216Z,38.20
2019-04-14T05:11:08.276Z,40.70
2019-04-14T05:17:08.175Z,40.00
2019-04-14T05:23:08.195Z,41.80
2019-04-14T05:29:08.192Z,41.90
2019-04-14T05:35:09.471Z,43.90
2019-04-14T05:41:09.119Z,47.20
2019-04-14T05:47:08.688Z,48.30
2019-04-14T05:53:08.679Z,44.10
2019-04-14T05:59:08.857Z,43.30
2019-04-14T06:05:09.116Z,53.20
2019-04-14T06:11:08.242Z,45.20
2019-04-14T23:37:37.254Z,11.40
2019-04-14T23:43:37.393Z,11.60
2019-04-14T23:49:37.345Z,11.50
2019-04-14T23:55:37.306Z,11.50
